Time;durP1;ratioP1;P1;durP2;ratioP2;P2;SDS_P1;SDS_P2;PMS_P1;PMS_P2;Temp;Humidity;BMP_temperature;BMP_pressure;BME280_temperature;BME280_humidity;BME280_pressure;Samples;Min_cycle;Max_cycle;Signal;HPM_P1;HPM_P2
2022/01/22 00:02:00;;;;;;;28.63;17.90;;;;;;;8.86;64.75;100919.53;5005727;28;102202;-50
2022/01/22 00:04:26;;;;;;;28.80;17.13;;;;;;;8.85;64.50;100915.19;5006463;28;102678;-49
2022/01/22 00:06:55;;;;;;;30.60;17.50;;;;;;;8.85;64.28;100915.19;5009417;28;102227;-48
2022/01/22 00:09:25;;;;;;;27.45;17.15;;;;;;;8.85;65.25;100908.94;5005342;28;103923;-50
2022/01/22 00:11:54;;;;;;;26.75;17.00;;;;;;;8.85;65.06;100909.75;5012007;28;102249;-49
2022/01/22 00:14:24;;;;;;;19.60;12.60;;;;;;;8.84;64.53;100910.84;5014664;27;102345;-48
2022/01/22 00:16:51;;;;;;;28.00;16.02;;;;;;;8.85;64.45;100900.78;5016140;28;101985;-50
2022/01/22 00:19:18;;;;;;;27.27;16.40;;;;;;;8.85;64.57;100901.63;5011290;28;104013;-50
2022/01/22 00:21:44;;;;;;;29.65;17.30;;;;;;;8.85;64.43;100907.03;5016221;27;102498;-50
2022/01/22 00:24:12;;;;;;;26.88;16.95;;;;;;;8.85;65.08;100900.78;5013176;28;102494;-48
2022/01/22 00:26:40;;;;;;;27.80;18.13;;;;;;;8.84;65.25;100899.97;5004792;28;103978;-48
2022/01/22 00:29:08;;;;;;;27.63;16.92;;;;;;;8.85;65.08;100911.66;5003249;28;103701;-48
2022/01/22 00:31:34;;;;;;;27.02;17.13;;;;;;;8.85;64.60;100900.78;5004311;28;102853;-47
2022/01/22 00:34:00;;;;;;;26.17;15.82;;;;;;;8.84;64.68;100902.69;4986835;27;102617;-48
2022/01/22 00:36:27;;;;;;;24.80;16.58;;;;;;;8.85;64.58;100907.03;5006669;28;103615;-48
2022/01/22 00:38:53;;;;;;;27.67;16.73;;;;;;;8.84;65.24;100902.69;5011257;27;103901;-50
2022/01/22 00:41:20;;;;;;;26.88;16.30;;;;;;;8.84;64.26;100893.75;5015111;28;102701;-51
2022/01/22 00:43:47;;;;;;;25.58;16.10;;;;;;;8.84;64.81;100894.56;5015273;27;102296;-50
2022/01/22 00:46:15;;;;;;;27.00;16.45;;;;;;;8.85;65.25;100895.38;5013433;27;102616;-48
2022/01/22 00:48:41;;;;;;;25.88;16.33;;;;;;;8.85;64.65;100884.50;5012155;28;103937;-50
2022/01/22 00:51:07;;;;;;;26.85;17.40;;;;;;;8.84;64.79;100883.69;5008323;28;102409;-49
2022/01/22 00:53:34;;;;;;;24.55;15.60;;;;;;;8.83;64.77;100882.03;5018348;27;102538;-50
2022/01/22 00:56:00;;;;;;;22.90;15.85;;;;;;;8.83;65.26;100879.31;5014376;28;102397;-50
2022/01/22 00:58:26;;;;;;;25.95;16.27;;;;;;;8.84;65.11;100867.41;5010656;28;103894;-47
2022/01/22 01:00:53;;;;;;;25.42;16.50;;;;;;;8.84;64.64;100861.16;5009657;28;103921;-50
2022/01/22 01:03:20;;;;;;;24.65;15.50;;;;;;;8.84;64.23;100867.41;5007230;28;102733;-50
2022/01/22 01:05:47;;;;;;;25.73;16.02;;;;;;;8.83;65.22;100865.75;5012722;28;102599;-50
2022/01/22 01:08:13;;;;;;;24.75;16.17;;;;;;;8.84;64.37;100866.59;5012120;27;104061;-48
2022/01/22 01:10:39;;;;;;;24.83;16.08;;;;;;;8.84;64.93;100872.84;5008857;28;102382;-51
2022/01/22 01:13:06;;;;;;;25.15;16.45;;;;;;;8.82;65.13;100864.13;5010411;27;102506;-49
2022/01/22 01:15:55;;;;;;;24.20;16.58;;;;;;;8.83;64.49;100860.31;5015316;27;102220;-47
2022/01/22 01:34:42;;;;;;;21.80;14.82;;;;;;;8.83;64.73;100870.38;5014754;27;102472;-51
2022/01/22 01:37:08;;;;;;;23.55;15.07;;;;;;;8.82;64.92;100877.69;5002894;28;103276;-48
2022/01/22 01:39:37;;;;;;;24.90;15.75;;;;;;;8.82;64.85;100869.56;5010000;28;103877;-49
2022/01/22 01:42:12;;;;;;;23.83;15.35;;;;;;;8.82;64.18;100877.69;5013848;28;102446;-50
2022/01/22 01:44:39;;;;;;;24.75;15.07;;;;;;;8.82;64.57;100880.41;5014276;28;102410;-50
2022/01/22 01:47:08;;;;;;;20.45;14.77;;;;;;;8.82;64.81;100874.97;5014051;27;104192;-50
2022/01/22 01:49:35;;;;;;;20.35;14.40;;;;;;;8.80;65.07;100874.44;5006101;28;104252;-48
2022/01/22 01:52:07;;;;;;;24.63;15.25;;;;;;;8.81;64.98;100873.34;5014029;27;102479;-49
2022/01/22 01:59:51;;;;;;;22.85;14.55;;;;;;;8.81;65.13;100862.50;5002907;28;103831;-51
2022/01/22 02:02:18;;;;;;;22.48;14.40;;;;;;;8.82;64.51;100864.13;5005279;28;102319;-48
2022/01/22 02:04:44;;;;;;;21.77;14.20;;;;;;;8.80;64.81;100863.56;5007517;28;102056;-49
2022/01/22 02:07:12;;;;;;;19.95;13.90;;;;;;;8.81;65.29;100867.09;5010904;27;102723;-49
2022/01/22 02:09:40;;;;;;;17.95;12.57;;;;;;;8.80;64.75;100877.16;5010122;27;104221;-49
2022/01/22 02:12:36;;;;;;;19.37;14.00;;;;;;;8.79;65.26;100867.34;5000393;28;102342;-48
2022/01/22 02:25:57;;;;;;;20.48;14.13;;;;;;;8.79;64.49;100889.06;5007716;27;102133;-47
2022/01/22 02:28:23;;;;;;;19.85;14.50;;;;;;;8.79;64.84;100889.06;5012397;28;103977;-48
2022/01/22 02:30:55;;;;;;;19.10;13.82;;;;;;;8.78;64.38;100895.56;5009943;28;103857;-47
2022/01/22 02:36:29;;;;;;;21.60;14.13;;;;;;;8.79;65.04;100891.78;4988466;28;102284;-49
2022/01/22 02:39:06;;;;;;;19.45;14.77;;;;;;;8.79;64.39;100893.66;5009149;28;102249;-51
2022/01/22 02:41:34;;;;;;;20.33;14.45;;;;;;;8.79;64.64;100883.63;5011366;28;103921;-51
2022/01/22 02:44:01;;;;;;;21.25;14.85;;;;;;;8.79;65.07;100880.91;5012864;28;102529;-49
2022/01/22 02:46:28;;;;;;;20.85;15.25;;;;;;;8.78;65.34;100879.28;5001675;28;102355;-47
2022/01/22 02:48:55;;;;;;;19.23;14.55;;;;;;;8.78;65.10;100873.84;5013515;28;104868;-50
2022/01/22 02:51:22;;;;;;;21.25;16.33;;;;;;;8.79;64.73;100877.38;5013444;27;103677;-48
2022/01/22 02:53:50;;;;;;;21.27;14.68;;;;;;;8.78;64.39;100879.28;5009347;28;102386;-49
2022/01/22 02:56:18;;;;;;;20.45;15.52;;;;;;;8.78;64.80;100876.56;5010863;27;102731;-47
2022/01/22 02:58:44;;;;;;;20.55;15.13;;;;;;;8.78;64.50;100882.00;5006996;28;102688;-48
2022/01/22 03:01:10;;;;;;;19.42;14.60;;;;;;;8.78;65.09;100882.00;5011828;28;103922;-47
2022/01/22 03:03:37;;;;;;;18.52;13.98;;;;;;;8.78;65.07;100873.03;5010487;28;102425;-48
2022/01/22 03:06:08;;;;;;;19.45;14.50;;;;;;;8.78;64.18;100873.84;5013086;28;102107;-50
2022/01/22 03:08:37;;;;;;;20.48;14.88;;;;;;;8.78;64.68;100878.47;5008228;28;102526;-48
2022/01/22 03:11:07;;;;;;;19.10;14.10;;;;;;;8.77;64.29;100877.66;5010595;28;103672;-50
2022/01/22 03:29:19;;;;;;;15.85;12.52;;;;;;;8.77;64.64;100874.13;5004474;27;103049;-49
2022/01/22 03:31:46;;;;;;;18.17;13.70;;;;;;;8.76;64.57;100876.00;5008638;28;103699;-49
2022/01/22 03:34:13;;;;;;;17.83;13.63;;;;;;;8.77;64.57;100876.84;5009493;28;103513;-48
2022/01/22 03:36:40;;;;;;;17.45;12.55;;;;;;;8.77;65.10;100869.50;5000047;28;102752;-50
2022/01/22 03:39:08;;;;;;;16.40;12.63;;;;;;;8.78;65.25;100871.13;5005793;28;102239;-47
2022/01/22 03:41:35;;;;;;;19.25;13.25;;;;;;;8.77;64.68;100871.41;5003727;28;104013;-50
2022/01/22 03:44:05;;;;;;;18.63;13.52;;;;;;;8.78;65.08;100867.63;5012118;28;102107;-47
2022/01/22 03:46:36;;;;;;;18.73;14.25;;;;;;;8.77;64.70;100872.22;5010950;28;102638;-48
2022/01/22 03:49:04;;;;;;;18.10;12.95;;;;;;;8.77;65.09;100874.94;5015328;28;102170;-47
2022/01/22 03:51:30;;;;;;;18.42;14.13;;;;;;;8.77;64.19;100866.78;5009427;28;104044;-50
2022/01/22 03:53:58;;;;;;;18.17;13.52;;;;;;;8.77;65.21;100874.94;5015626;28;102347;-50
2022/01/22 03:56:26;;;;;;;16.13;12.48;;;;;;;8.76;64.10;100878.72;5012692;28;102461;-47
2022/01/22 03:58:52;;;;;;;16.25;12.73;;;;;;;8.76;64.69;100878.72;5012066;28;103144;-48
2022/01/22 04:04:12;;;;;;;16.45;12.05;;;;;;;8.77;64.40;100874.94;5014038;27;103935;-51
2022/01/22 04:09:27;;;;;;;15.18;11.55;;;;;;;8.76;64.26;100884.13;5014163;27;102516;-49
2022/01/22 04:11:55;;;;;;;16.25;12.00;;;;;;;8.76;64.71;100881.41;5015236;27;103832;-48
2022/01/22 04:14:27;;;;;;;16.52;12.30;;;;;;;8.77;65.24;100882.25;5013984;28;102422;-47
2022/01/22 04:24:55;;;;;;;17.13;12.35;;;;;;;8.77;64.46;100872.22;5008902;27;102618;-51
2022/01/22 04:27:27;;;;;;;15.97;11.70;;;;;;;8.77;65.12;100874.13;5004719;28;102105;-49
2022/01/22 04:29:57;;;;;;;15.20;11.38;;;;;;;8.76;64.08;100869.75;5015461;27;102137;-49
2022/01/22 04:32:25;;;;;;;16.02;11.15;;;;;;;8.76;65.17;100881.41;5015532;28;103987;-49
2022/01/22 04:34:53;;;;;;;14.68;11.50;;;;;;;8.75;64.09;100874.34;5015920;28;102109;-48
2022/01/22 04:37:20;;;;;;;16.20;11.90;;;;;;;8.76;64.75;100877.88;5008954;28;103828;-48
2022/01/22 04:39:47;;;;;;;15.32;11.73;;;;;;;8.76;65.23;100880.59;5010516;28;102620;-49
2022/01/22 04:42:14;;;;;;;14.93;10.85;;;;;;;8.76;64.19;100880.59;5013580;28;103963;-48
2022/01/22 04:45:05;;;;;;;15.23;11.30;;;;;;;8.75;64.35;100877.06;5016087;28;102126;-50
2022/01/22 04:47:41;;;;;;;13.38;10.60;;;;;;;8.75;64.76;100871.66;5010093;28;102146;-49
2022/01/22 04:55:38;;;;;;;;;;;;;;;8.75;64.72;100874.34;5015571;28;102465;-49
2022/01/22 04:58:10;;;;;;;;;;;;;;;8.76;64.69;100877.88;5012070;27;103513;-47
2022/01/22 05:00:37;;;;;;;;;;;;;;;8.75;64.30;100882.50;5009358;28;102409;-50
2022/01/22 05:03:04;;;;;;;;;;;;;;;8.75;64.73;100874.34;5009567;28;103679;-51
2022/01/22 05:05:31;;;;;;;;;;;;;;;8.76;64.93;100880.59;5014961;28;102550;-49
2022/01/22 05:07:57;;;;;;;;;;;;;;;8.75;65.01;100874.34;5016851;27;103431;-49
2022/01/22 05:10:25;;;;;;;;;;;;;;;8.76;64.41;100884.13;5012746;28;102584;-49
2022/01/22 05:12:53;;;;;;;;;;;;;;;8.76;65.21;100886.84;5010714;27;103942;-50
2022/01/22 05:15:20;;;;;;;;;;;;;;;8.75;64.49;100878.97;5011878;28;104132;-48
2022/01/22 05:17:47;;;;;;;;;;;;;;;8.75;64.50;100874.34;5011332;28;102633;-50
2022/01/22 05:20:25;;;;;;;;;;;;;;;8.75;64.61;100885.22;5014041;28;102284;-50
2022/01/22 05:22:58;;;;;;;;;;;;;;;8.75;64.24;100887.94;5011730;28;103929;-50
2022/01/22 05:25:40;;;;;;;;;;;;;;;8.75;64.63;100885.22;5015414;27;102251;-52
2022/01/22 05:28:29;;;;;;;;;;;;;;;8.74;64.37;100886.28;5014948;28;102410;-50
2022/01/22 05:31:05;;;;;;;;;;;;;;;8.75;65.18;100896.06;5012834;27;102334;-48
2022/01/22 05:38:44;;;;;;;;;;;;;;;8.75;65.18;100893.34;5015279;27;102461;-50
2022/01/22 05:41:10;;;;;;;;;;;;;;;8.75;64.15;100889.81;5012396;27;102257;-49
2022/01/22 05:43:37;;;;;;;;;;;;;;;8.74;64.58;100897.16;5011271;28;103053;-48
2022/01/22 05:46:03;;;;;;;;;;;;;;;8.74;64.36;100894.44;5011795;28;102677;-49
2022/01/22 05:48:29;;;;;;;;;;;;;;;8.75;65.16;100885.22;5013499;28;102762;-48
2022/01/22 05:51:00;;;;;;;;;;;;;;;8.75;64.82;100890.66;5010241;28;102399;-49
2022/01/22 05:53:44;;;;;;;;;;;;;;;8.75;65.08;100896.06;5011515;28;103704;-47
2022/01/22 06:01:45;;;;;;;;;;;;;;;8.74;65.16;100883.59;5003028;28;103467;-50
2022/01/22 06:04:11;;;;;;;;;;;;;;;8.74;64.36;100878.16;5004950;27;103775;-52
2022/01/22 06:06:37;;;;;;;;;;;;;;;8.74;64.23;100875.44;5012478;28;102465;-49
2022/01/22 06:09:08;;;;;;;;;;;;;;;8.75;64.70;100868.94;5011300;28;102534;-51
2022/01/22 06:11:50;;;;;;;;;;;;;;;8.76;64.96;100878.72;5010166;28;102415;-50
2022/01/22 06:14:17;;;;;;;;;;;;;;;8.75;64.79;100874.34;5011433;28;103718;-49
2022/01/22 06:16:43;;;;;;;;;;;;;;;8.75;64.50;100876.25;5007924;28;102148;-51
2022/01/22 06:19:09;;;;;;;;;;;;;;;8.75;64.84;100874.34;5015376;27;103112;-50
2022/01/22 06:21:35;;;;;;;;;;;;;;;8.74;64.94;100889.00;5011169;28;102412;-50
2022/01/22 06:24:01;;;;;;;;;;;;;;;8.75;64.18;100887.94;5012052;28;103996;-50
2022/01/22 06:26:27;;;;;;;;;;;;;;;8.75;64.87;100887.13;5017397;28;104167;-48
2022/01/22 06:28:54;;;;;;;;;;;;;;;8.75;64.55;100898.78;5014555;27;102253;-49
2022/01/22 06:31:20;;;;;;;;;;;;;;;8.75;65.00;100901.50;5008959;28;103623;-49
2022/01/22 06:33:46;;;;;;;;;;;;;;;8.76;65.34;100896.88;5007460;28;103729;-49
2022/01/22 06:36:13;;;;;;;;;;;;;;;8.75;65.14;100890.66;5014608;28;102763;-48
2022/01/22 06:38:39;;;;;;;;;;;;;;;8.75;64.28;100896.06;5010372;28;102453;-48
2022/01/22 06:43:49;;;;;;;;;;;;;;;8.75;64.60;100898.78;5001611;28;107974;-49
2022/01/22 06:46:16;;;;;;;;;;;;;;;8.76;64.99;100903.13;5010117;27;102539;-51
2022/01/22 06:48:42;;;;;;;;;;;;;;;8.75;64.69;100896.06;5013361;27;102076;-50
2022/01/22 06:51:09;;;;;;;;;;;;;;;8.76;64.48;100913.97;5013797;28;102345;-50
2022/01/22 06:53:40;;;;;;;;;;;;;;;8.76;64.55;100905.03;5008070;27;103894;-50
2022/01/22 06:56:07;;;;;;;;;;;;;;;8.76;64.39;100903.13;5003511;28;102123;-48
2022/01/22 06:58:33;;;;;;;;;;;;;;;8.77;64.52;100907.50;5003297;28;103350;-48
2022/01/22 07:00:59;;;;;;;;;;;;;;;8.76;65.09;100900.41;5013304;28;102847;-48
2022/01/22 07:03:27;;;;;;;;;;;;;;;8.77;65.06;100902.06;5008086;28;103767;-48
2022/01/22 07:05:53;;;;;;;;;;;;;;;8.77;64.73;100891.22;5008670;28;102355;-48
2022/01/22 07:08:19;;;;;;;;;;;;;;;8.76;64.74;100892.28;5010545;27;102129;-49
2022/01/22 07:10:45;;;;;;;;;;;;;;;8.77;65.48;100902.06;5013793;27;102396;-51
2022/01/22 07:13:11;;;;;;;;;;;;;;;8.78;64.59;100890.13;5004996;28;104240;-49
2022/01/22 07:15:37;;;;;;;;;;;;;;;8.78;64.40;100901.00;5007507;28;102129;-47
2022/01/22 07:18:04;;;;;;;;;;;;;;;8.78;65.01;100901.00;5010612;28;102708;-48
2022/01/22 07:20:34;;;;;;;;;;;;;;;8.78;64.44;100903.72;5011577;27;102635;-51
2022/01/22 07:23:14;;;;;;;;;;;;;;;8.79;64.59;100905.34;5013530;28;104618;-51
2022/01/22 07:25:40;;;;;;;;;;;;;;;8.79;64.55;100894.47;5011897;27;102509;-50
2022/01/22 07:28:06;;;;;;;;;;;;;;;8.79;65.09;100905.34;5015934;28;102784;-49
2022/01/22 07:30:32;;;;;;;;;;;;;;;8.80;64.66;100915.13;5012604;28;102384;-49
2022/01/22 07:32:58;;;;;;;;;;;;;;;8.81;65.36;100905.09;5006043;27;104041;-48
2022/01/22 07:35:24;;;;;;;;;;;;;;;8.80;64.91;100908.88;5012580;27;102531;-50
2022/01/22 07:37:51;;;;;;;;;;;;;;;8.81;64.70;100911.34;5005463;28;102571;-49
2022/01/22 07:40:17;;;;;;;;;;;;;;;8.81;64.66;100913.25;5001617;28;103352;-47
2022/01/22 07:42:43;;;;;;;;;;;;;;;8.81;64.56;100918.66;5004073;27;103874;-48
2022/01/22 07:45:10;;;;;;;;;;;;;;;8.81;64.80;100926.81;5006692;27;102206;-49
2022/01/22 07:47:37;;;;;;;;;;;;;;;8.80;65.59;100931.41;5002395;28;102085;-47
2022/01/22 07:50:04;;;;;;;;;;;;;;;8.82;65.05;100934.69;5019387;28;102166;-50
2022/01/22 07:52:30;;;;;;;;;;;;;;;8.82;64.71;100936.59;5012041;27;103918;-48
2022/01/22 07:54:57;;;;;;;;;;;;;;;8.81;64.71;100940.38;5015131;27;103482;-47
2022/01/22 07:57:23;;;;;;;;;;;;;;;8.81;65.04;100943.91;5006727;28;102240;-51
2022/01/22 07:59:50;;;;;;;;;;;;;;;8.81;64.95;100943.91;5012468;28;102295;-48
2022/01/22 08:02:16;;;;;;;;;;;;;;;8.82;65.11;100942.81;5009269;27;104041;-47
2022/01/22 08:04:43;;;;;;;;;;;;;;;8.82;64.64;100953.69;5014166;28;102142;-52
2022/01/22 08:07:10;;;;;;;;;;;;;;;8.82;64.58;100940.09;5018529;27;102257;-50
2022/01/22 08:09:36;;;;;;;;;;;;;;;8.82;64.47;100942.81;5012141;28;102636;-47
2022/01/22 08:12:04;;;;;;;;;;;;;;;8.83;64.89;100947.16;5015760;27;104467;-49
2022/01/22 08:14:30;;;;;;;;;;;;;;;8.83;64.98;100947.16;5009596;28;102708;-49
2022/01/22 08:16:56;;;;;;;;;;;;;;;8.83;64.43;100952.59;5008453;27;101999;-49
2022/01/22 08:19:23;;;;;;;;;;;;;;;8.83;64.89;100936.31;5003793;28;102218;-47
2022/01/22 08:21:49;;;;;;;;;;;;;;;8.82;64.58;100945.53;5011233;27;103965;-50
2022/01/22 08:24:17;;;;;;;;;;;;;;;8.83;64.71;100941.75;5013881;28;102627;-50
2022/01/22 08:26:48;;;;;;;;;;;;;;;8.83;64.80;100939.03;5012310;28;102877;-48
2022/01/22 08:29:16;;;;;;;;;;;;;;;8.83;64.96;100939.03;5012776;28;102484;-51
2022/01/22 08:36:54;;;;;;;;;;;;;;;8.84;64.56;100948.84;5013745;28;102935;-51
2022/01/22 08:39:20;;;;;;;;;;;;;;;8.84;64.94;100942.59;5009114;27;102358;-51
2022/01/22 08:41:47;;;;;;;;;;;;;;;8.85;65.25;100944.22;5007159;28;103872;-48
2022/01/22 08:44:13;;;;;;;;;;;;;;;8.85;64.56;100950.47;5014720;28;102196;-48
2022/01/22 08:46:40;;;;;;;;;;;;;;;8.85;64.98;100941.50;5005974;28;102425;-48
2022/01/22 08:49:08;;;;;;;;;;;;;;;8.85;65.10;100939.59;5008621;27;103606;-50
2022/01/22 08:51:37;;;;;;;;;;;;;;;8.86;64.90;100933.09;5006914;28;104007;-49
2022/01/22 08:54:04;;;;;;;;;;;;;;;8.86;65.48;100927.66;5010331;27;103691;-51
2022/01/22 08:56:30;;;;;;;;;;;;;;;8.88;64.74;100922.00;5003935;28;104491;-49
2022/01/22 08:58:56;;;;;;;;;;;;;;;8.87;64.58;100918.47;5009083;27;103920;-47
2022/01/22 09:01:23;;;;;;;;;;;;;;;8.89;65.24;100923.63;5007511;28;107939;-48
2022/01/22 09:03:50;;;;;;;;;;;;;;;8.88;64.65;100911.97;5005070;28;102219;-50
2022/01/22 09:06:20;;;;;;;;;;;;;;;8.89;64.51;100908.16;5007140;28;102132;-48
2022/01/22 09:08:50;;;;;;;;;;;;;;;8.89;64.64;100913.59;5006564;27;102632;-50
2022/01/22 09:11:16;;;;;;;;;;;;;;;8.90;65.54;100915.22;5011715;27;103899;-47
2022/01/22 09:13:42;;;;;;;;;;;;;;;8.92;65.11;100911.47;5010423;27;103466;-50
2022/01/22 09:16:08;;;;;;;;;;;;;;;8.93;64.72;100910.38;5004244;27;102663;-50
2022/01/22 09:18:37;;;;;;;;;;;;;;;8.93;65.03;100913.09;5008981;27;102792;-48
2022/01/22 09:21:04;;;;;;;;;;;;;;;8.92;65.30;100912.28;5012818;27;103786;-50
2022/01/22 09:23:31;;;;;;;;;;;;;;;8.93;64.97;100903.03;5013745;27;102062;-48
2022/01/22 09:25:57;;;;;;;;;;;;;;;8.94;65.37;100898.44;5004899;27;102336;-48
2022/01/22 09:28:23;;;;;;;;;;;;;;;8.93;65.07;100903.03;5013785;28;102247;-49
2022/01/22 09:30:49;;;;;;;;;;;;;;;8.96;64.62;100901.72;5002789;27;103910;-50
2022/01/22 09:33:15;;;;;;;;;;;;;;;8.96;64.50;100899.00;5003844;27;102381;-49
2022/01/22 09:35:41;;;;;;;;;;;;;;;8.96;65.10;100890.88;5000175;28;102178;-49
2022/01/22 09:38:09;;;;;;;;;;;;;;;8.96;64.97;100888.16;5014358;27;104135;-47
2022/01/22 09:40:35;;;;;;;;;;;;;;;8.96;64.46;100896.28;5009227;28;103876;-50
2022/01/22 09:43:01;;;;;;;;;;;;;;;8.96;64.38;100893.56;5013700;28;102550;-49
2022/01/22 09:45:28;;;;;;;;;;;;;;;8.97;65.09;100892.50;5006392;28;102790;-50
2022/01/22 09:47:55;;;;;;;;;;;;;;;8.97;64.43;100903.34;5013547;28;102705;-47
2022/01/22 09:50:22;;;;;;;;;;;;;;;8.97;65.19;100903.34;5013390;28;104176;-49
2022/01/22 09:52:49;;;;;;;;;;;;;;;8.96;64.37;100899.81;5012829;28;102495;-49
2022/01/22 09:55:21;;;;;;;;;;;;;;;8.97;64.42;100911.50;5004704;28;102202;-48
2022/01/22 09:57:47;;;;;;;;;;;;;;;8.98;64.27;100910.41;5014701;28;102324;-50
2022/01/22 10:00:14;;;;;;;;;;;;;;;8.97;64.96;100909.59;5014109;28;103864;-47
2022/01/22 10:02:41;;;;;;;;;;;;;;;8.98;64.35;100910.41;5011120;28;102331;-47
2022/01/22 10:05:24;;;;;;;;;;;;;;;8.98;65.24;100910.41;5011515;28;102289;-47
2022/01/22 10:07:52;;;;;;;;;;;;;;;8.97;64.81;100915.03;5015309;28;102557;-48
2022/01/22 10:10:21;;;;;;;;;;;;;;;8.98;65.20;100911.25;5012387;27;103904;-47
2022/01/22 10:12:52;;;;;;;;;;;;;;;8.98;64.76;100904.97;5006908;28;102129;-47
2022/01/22 10:15:18;;;;;;;;;;;;;;;8.97;64.54;100898.75;5012883;28;102500;-49
2022/01/22 10:17:46;;;;;;;;;;;;;;;8.97;64.40;100906.88;5015373;28;102208;-48
2022/01/22 10:20:31;;;;;;;;;;;;;;;8.98;64.75;100900.41;5012021;28;103984;-50
2022/01/22 10:22:59;;;;;;;;;;;;;;;8.97;64.55;100897.94;5009101;28;102510;-47
2022/01/22 10:25:31;;;;;;;;;;;;;;;8.97;65.26;100897.94;5012810;27;102461;-47
2022/01/22 10:27:58;;;;;;;;;;;;;;;8.97;64.41;100892.50;5012431;28;102363;-47
2022/01/22 10:30:34;;;;;;;;;;;;;;;8.98;64.44;100891.41;5007005;28;104283;-49
2022/01/22 10:33:10;;;;;;;;;;;;;;;8.97;64.47;100881.63;5014420;28;102752;-47
2022/01/22 10:35:37;;;;;;;;;;;;;;;8.97;64.71;100882.44;5013084;28;102070;-47
2022/01/22 10:38:04;;;;;;;;;;;;;;;8.97;64.67;100877.03;5011462;28;102346;-48
2022/01/22 10:40:33;;;;;;;;;;;;;;;8.96;64.47;100871.88;5001899;28;103726;-50
2022/01/22 10:43:16;;;;;;;;;;;;;;;8.98;64.86;100872.41;5006726;28;102890;-50
2022/01/22 10:45:56;;;;;;;;;;;;;;;8.97;64.65;100865.34;5002390;28;102547;-49
2022/01/22 10:48:22;;;;;;;;;;;;;;;8.97;64.70;100865.34;5009206;28;102108;-50
2022/01/22 10:50:59;;;;;;;;;;;;;;;8.97;64.41;100859.91;5010716;27;103857;-49
2022/01/22 10:53:32;;;;;;;;;;;;;;;8.98;64.79;100853.41;5016083;27;102433;-50
2022/01/22 10:56:00;;;;;;;;;;;;;;;8.96;64.45;100863.72;5013552;28;102361;-48
2022/01/22 10:58:26;;;;;;;;;;;;;;;8.97;65.29;100862.63;5014668;28;102246;-49
2022/01/22 11:00:57;;;;;;;;;;;;;;;8.96;65.22;100858.28;5013330;27;104350;-47
2022/01/22 11:03:25;;;;;;;;;;;;;;;8.97;64.98;100854.50;5003621;28;102922;-49
2022/01/22 11:05:51;;;;;;;;;;;;;;;8.97;65.05;100857.22;5011833;28;102179;-48
2022/01/22 11:08:17;;;;;;;;;;;;;;;8.97;64.96;100843.63;5012325;28;102401;-47
2022/01/22 11:10:45;;;;;;;;;;;;;;;8.96;65.17;100848.25;5011136;28;103897;-49
2022/01/22 11:13:13;;;;;;;;;;;;;;;8.96;65.24;100845.53;5009819;28;102931;-47
2022/01/22 11:15:40;;;;;;;;;;;;;;;8.97;64.47;100849.06;5006459;27;102765;-51
2022/01/22 11:18:07;;;;;;;;;;;;;;;8.97;64.43;100851.78;5006254;28;102569;-47
2022/01/22 11:20:34;;;;;;;;;;;;;;;8.96;64.74;100847.44;5011915;28;104081;-50
2022/01/22 11:23:00;;;;;;;;;;;;;;;8.96;64.88;100852.88;5007027;27;102327;-49
2022/01/22 11:25:26;;;;;;;;;;;;;;;8.96;65.04;100850.16;5024934;28;102243;-48
2022/01/22 11:27:52;;;;;;;;;;;;;;;8.96;64.54;100858.28;5013309;28;103178;-48
2022/01/22 11:30:25;;;;;;;;;;;;;;;8.96;65.17;100856.38;5006039;28;103903;-48
2022/01/22 11:32:54;;;;;;;;;;;;;;;8.95;64.85;100854.75;5008673;27;102169;-50
2022/01/22 11:35:22;;;;;;;;;;;;;;;8.96;64.49;100847.44;5016566;28;102561;-49
2022/01/22 11:37:50;;;;;;;;;;;;;;;8.96;64.75;100852.88;5007827;27;102465;-48
2022/01/22 11:40:18;;;;;;;;;;;;;;;8.96;64.51;100850.16;5010466;27;104036;-51
2022/01/22 11:42:56;;;;;;;;;;;;;;;8.96;64.69;100847.44;5007911;27;104916;-49
2022/01/22 11:45:25;;;;;;;;;;;;;;;8.95;64.53;100837.66;5008359;28;102601;-47
2022/01/22 11:48:05;;;;;;;;;;;;;;;8.95;64.54;100829.53;5008724;27;102623;-48
2022/01/22 11:50:32;;;;;;;;;;;;;;;8.96;64.45;100836.56;5006190;28;105128;-48
2022/01/22 11:53:19;;;;;;;;;;;;;;;8.95;64.43;100835.75;5005731;28;102210;-47
2022/01/22 11:56:01;;;;;;;;;;;;;;;8.90;63.96;100839.22;5001909;28;102654;-49
2022/01/22 11:58:27;;;;;;;;;;;;;;;8.79;62.50;100834.78;5010751;28;102165;-49
2022/01/22 12:00:54;;;;;;;;;;;;;;;8.74;62.85;100840.16;5008737;28;103822;-49
2022/01/22 12:03:20;;;;;;;;;;;;;;;8.67;61.14;100839.56;5007939;28;102511;-47
2022/01/22 12:06:01;;;;;;;;;;;;;;;8.60;61.37;100838.94;5005231;28;103128;-49
2022/01/22 12:08:27;;;;;;;;;;;;;;;8.56;60.69;100840.53;5012038;27;104251;-49
2022/01/22 12:16:15;;;;;;;;;;;;;;;8.48;62.21;100838.28;5008862;28;102552;-47
2022/01/22 12:18:50;;;;;;;;;;;;;;;8.51;63.11;100843.16;5002898;27;102667;-47
2022/01/22 12:21:35;;;;;;;;;;;;;;;8.51;63.34;100840.44;5003786;27;103870;-47
2022/01/22 12:24:08;;;;;;;;;;;;;;;8.52;63.52;100834.78;5005179;28;102630;-46
2022/01/22 12:26:39;;;;;;;;;;;;;;;8.52;63.86;100839.41;5005964;28;102259;-47
2022/01/22 12:29:24;;;;;;;;;;;;;;;8.51;63.13;100843.16;5002509;28;107938;-46
2022/01/22 12:32:04;;;;;;;;;;;;;;;8.50;63.18;100838.81;5008622;27;107874;-48
2022/01/22 12:34:49;;;;;;;;;;;;;;;8.49;63.52;100834.47;5009337;27;102454;-49
2022/01/22 12:37:19;;;;;;;;;;;;;;;8.49;63.32;100842.63;5003706;28;103567;-46
2022/01/22 12:39:49;;;;;;;;;;;;;;;8.49;63.64;100842.63;5011680;28;102350;-49
2022/01/22 12:42:26;;;;;;;;;;;;;;;8.48;63.13;100846.41;5010133;28;104548;-49
2022/01/22 12:44:56;;;;;;;;;;;;;;;8.48;63.60;100851.84;5004954;28;102285;-49
2022/01/22 12:47:22;;;;;;;;;;;;;;;8.48;63.47;100841.81;5004043;28;102301;-46
2022/01/22 12:49:57;;;;;;;;;;;;;;;8.48;63.15;100846.41;5009017;27;102606;-47
2022/01/22 12:52:25;;;;;;;;;;;;;;;8.48;64.05;100855.38;5007839;27;103852;-48
2022/01/22 12:54:56;;;;;;;;;;;;;;;8.48;62.76;100855.38;5004136;28;102294;-49
2022/01/22 12:57:25;;;;;;;;;;;;;;;8.48;62.96;100847.22;5008870;27;102142;-46
2022/01/22 12:59:52;;;;;;;;;;;;;;;8.49;63.45;100856.19;5011946;27;102634;-50
2022/01/22 13:02:18;;;;;;;;;;;;;;;8.48;63.09;100858.06;5008686;27;103904;-48
2022/01/22 13:04:55;;;;;;;;;;;;;;;8.50;63.26;100860.53;5003926;28;102588;-46
2022/01/22 13:07:21;;;;;;;;;;;;;;;8.49;63.60;100864.31;5003894;28;102598;-49
2022/01/22 13:09:51;;;;;;;;;;;;;;;8.50;63.23;100868.66;5016965;27;102166;-47
2022/01/22 13:12:18;;;;;;;;;;;;;;;8.50;63.07;100871.38;5012258;28;103881;-48
2022/01/22 13:14:44;;;;;;;;;;;;;;;8.51;63.06;100870.28;5009875;28;102502;-49
2022/01/22 13:17:11;;;;;;;;;;;;;;;8.52;63.22;100869.22;5007644;28;102926;-48
2022/01/22 13:19:37;;;;;;;;;;;;;;;8.51;62.90;100873.84;5012491;27;102213;-47
2022/01/22 13:22:03;;;;;;;;;;;;;;;8.53;64.02;100868.16;5012709;28;104064;-48
2022/01/22 13:24:31;;;;;;;;;;;;;;;8.54;63.48;100864.34;5001444;27;102504;-48
2022/01/22 13:27:02;;;;;;;;;;;;;;;8.56;63.29;100878.50;5003841;28;102558;-47
2022/01/22 13:29:30;;;;;;;;;;;;;;;8.57;63.13;100872.00;5010178;28;102721;-48
2022/01/22 13:32:01;;;;;;;;;;;;;;;8.57;63.38;100877.41;5010546;28;104261;-50
2022/01/22 13:34:44;;;;;;;;;;;;;;;8.58;64.13;100879.03;5011069;28;102387;-50
2022/01/22 13:47:40;;;;;;;;;;;;;;;8.61;63.79;100883.97;5008068;28;102321;-50
2022/01/22 13:48:08;;;;;;;;;;;;;;;8.61;63.22;100883.97;5010646;28;102190;-49
2022/01/22 13:50:34;;;;;;;;;;;;;;;8.61;63.45;100889.41;5015015;27;102292;-47
2022/01/22 13:53:00;;;;;;;;;;;;;;;8.63;63.71;100889.97;5011559;28;103696;-51
2022/01/22 13:55:27;;;;;;;;;;;;;;;8.63;64.00;100887.25;5010954;28;102527;-48
2022/01/22 13:57:54;;;;;;;;;;;;;;;8.63;63.92;100893.50;5014434;28;102158;-47
2022/01/22 14:00:21;;;;;;;;;;;;;;;8.64;64.38;100897.03;5008503;28;102437;-47